Menekse-ii — TC3786 — position and weather

sailwx.info

Track history (hours):
 
Tides and Currents Weather Stations Pressure Air Temp Water Temp Dewpoint Dewpoint Depression Visibility Wind Speed Wind Dir Waves Ship Positions

Menekse-ii

Last reported at 2018-Apr-28 21:39 UTC. Time now 2018-Jun-20 20:37 UTC.
Position N 40°42' E 029°13'.
Warning: this ship's position is 52 days out of date.

Length 41 m.

Type: Tanker. MMSI: 271010193.

Date/timePositionNaut miles runAvg speedWind from/ knotsBaromVisibWave heightAir tempDewpointWater temp
2018-Apr-28 21:39N 40°42' E 029°13'2 1.3
2018-Apr-28 19:43N 40°40' E 029°15'2 5.5
2018-Apr-28 19:25N 40°41' E 029°14'3 7.4
2018-Apr-28 19:01N 40°44' E 029°14'4 7.7
2018-Apr-28 18:29N 40°48' E 029°13'4 7.8
2018-Apr-28 17:59N 40°52' E 029°13'0 0.1
2018-Apr-28 17:22N 40°52' E 029°13'0 0.0
2018-Apr-28 16:58N 40°52' E 029°13'0 0.0
2018-Apr-28 16:22N 40°52' E 029°13'0 0.0
2018-Apr-28 15:46N 40°52' E 029°13'1 3.4
2018-Apr-28 15:29N 40°52' E 029°14'2 4.0
2018-Apr-28 14:53N 40°51' E 029°17'0 0.0
2018-Apr-28 14:29N 40°51' E 029°17'0 0.0
2018-Apr-28 13:59N 40°51' E 029°17'0 0.1
2018-Apr-28 13:22N 40°51' E 029°17'0 0.1
2018-Apr-28 12:47N 40°51' E 029°17'0 0.0
2018-Apr-28 12:29N 40°51' E 029°17'0 0.0
2018-Apr-28 11:59N 40°51' E 029°17'0 0.0
2018-Apr-28 11:29N 40°51' E 029°17'0 0.0
2018-Apr-28 10:59N 40°51' E 029°17'0 0.0
2018-Apr-28 10:29N 40°51' E 029°17'0 0.0
2018-Apr-28 09:59N 40°51' E 029°17'  
Track history (hours):
 
Tides and Currents Weather Stations Pressure Air Temp Water Temp Dewpoint Dewpoint Depression Visibility Wind Speed Wind Dir Waves Ship Positions

Menekse-ii

Last reported at 2018-Apr-28 21:39 UTC. Time now 2018-Jun-20 20:37 UTC.
Position N 40°42' E 029°13'.
Warning: this ship's position is 52 days out of date.

Length 41 m.

Type: Tanker. MMSI: 271010193.

Date/timePositionNaut miles runAvg speedWind from/ knotsBaromVisibWave heightAir tempDewpointWater temp
2018-Apr-28 21:39N 40°42' E 029°13'2 1.3
2018-Apr-28 19:43N 40°40' E 029°15'2 5.5
2018-Apr-28 19:25N 40°41' E 029°14'3 7.4
2018-Apr-28 19:01N 40°44' E 029°14'4 7.7
2018-Apr-28 18:29N 40°48' E 029°13'4 7.8
2018-Apr-28 17:59N 40°52' E 029°13'0 0.1
2018-Apr-28 17:22N 40°52' E 029°13'0 0.0
2018-Apr-28 16:58N 40°52' E 029°13'0 0.0
2018-Apr-28 16:22N 40°52' E 029°13'0 0.0
2018-Apr-28 15:46N 40°52' E 029°13'1 3.4
2018-Apr-28 15:29N 40°52' E 029°14'2 4.0
2018-Apr-28 14:53N 40°51' E 029°17'0 0.0
2018-Apr-28 14:29N 40°51' E 029°17'0 0.0
2018-Apr-28 13:59N 40°51' E 029°17'0 0.1
2018-Apr-28 13:22N 40°51' E 029°17'0 0.1
2018-Apr-28 12:47N 40°51' E 029°17'0 0.0
2018-Apr-28 12:29N 40°51' E 029°17'0 0.0
2018-Apr-28 11:59N 40°51' E 029°17'0 0.0
2018-Apr-28 11:29N 40°51' E 029°17'0 0.0
2018-Apr-28 10:59N 40°51' E 029°17'0 0.0
2018-Apr-28 10:29N 40°51' E 029°17'0 0.0
2018-Apr-28 09:59N 40°51' E 029°17'  

Dump ship's entire track history